createdAt,value
2023-05-25T00:00:12.207Z,11.27
2023-05-25T00:02:39.648Z,8.63
2023-05-25T00:05:09.121Z,11.67
2023-05-25T00:07:36.038Z,11.63
2023-05-25T00:10:03.459Z,10.50
2023-05-25T00:12:30.162Z,8.80
2023-05-25T00:14:56.934Z,8.30
2023-05-25T00:17:24.337Z,8.27
2023-05-25T00:19:51.602Z,8.13
2023-05-25T00:22:18.366Z,15.03
2023-05-25T00:24:45.070Z,8.23
2023-05-25T00:27:11.867Z,10.83
2023-05-25T00:29:38.566Z,8.20
2023-05-25T00:32:05.800Z,8.87
2023-05-25T00:34:32.532Z,10.50
2023-05-25T00:36:59.302Z,12.13
2023-05-25T00:39:26.182Z,14.23
2023-05-25T00:41:54.394Z,10.17
2023-05-25T00:44:22.076Z,9.53
2023-05-25T00:46:50.802Z,7.90
2023-05-25T00:49:19.341Z,11.00
2023-05-25T00:51:47.710Z,9.30
2023-05-25T00:54:16.095Z,11.47
2023-05-25T00:56:47.849Z,11.73
2023-05-25T00:59:28.507Z,9.57
2023-05-25T01:01:57.690Z,9.30
2023-05-25T01:04:28.381Z,11.07
2023-05-25T01:06:58.481Z,11.67
2023-05-25T01:09:27.889Z,12.03
2023-05-25T01:11:56.583Z,12.00
2023-05-25T01:14:25.005Z,11.90
2023-05-25T01:16:52.172Z,7.00
2023-05-25T01:19:19.014Z,11.63
2023-05-25T01:22:12.255Z,7.30
2023-05-25T01:24:41.522Z,9.07
2023-05-25T01:27:22.423Z,12.83
2023-05-25T01:29:49.519Z,7.87
2023-05-25T01:32:18.089Z,11.07
2023-05-25T01:34:46.846Z,10.77
2023-05-25T01:37:13.695Z,10.63
2023-05-25T01:39:41.589Z,16.70
2023-05-25T01:42:08.596Z,9.27
2023-05-25T01:44:36.867Z,10.17
2023-05-25T01:47:10.494Z,11.10
2023-05-25T01:49:52.244Z,10.13
2023-05-25T01:52:23.632Z,11.60
2023-05-25T01:54:59.272Z,15.50
2023-05-25T01:57:29.150Z,14.27
2023-05-25T02:00:02.493Z,9.80
2023-05-25T02:02:31.060Z,9.27
2023-05-25T02:04:58.242Z,8.40
2023-05-25T02:07:24.922Z,14.73
2023-05-25T02:09:51.657Z,12.47
2023-05-25T02:12:18.452Z,10.23
2023-05-25T02:14:48.421Z,7.77
2023-05-25T02:17:17.907Z,8.50
2023-05-25T02:19:45.540Z,9.93
2023-05-25T02:22:12.361Z,9.73
2023-05-25T02:24:39.084Z,11.23
2023-05-25T02:27:06.802Z,12.00
2023-05-25T02:29:33.560Z,8.87
2023-05-25T02:32:00.391Z,12.93
2023-05-25T02:34:27.070Z,9.70
2023-05-25T02:36:53.771Z,9.97
2023-05-25T02:39:20.488Z,10.83
2023-05-25T02:41:47.172Z,8.23
2023-05-25T02:44:13.913Z,10.07
2023-05-25T02:46:40.662Z,12.50
2023-05-25T02:49:07.452Z,8.70
2023-05-25T02:51:34.285Z,8.07
2023-05-25T02:54:01.309Z,8.07
2023-05-25T02:56:28.264Z,11.73
2023-05-25T02:58:55.163Z,12.30
2023-05-25T03:01:21.925Z,11.73
2023-05-25T03:03:52.581Z,8.23
2023-05-25T03:06:21.562Z,11.73
2023-05-25T03:08:48.595Z,11.07
2023-05-25T03:11:15.573Z,13.37
2023-05-25T03:13:42.300Z,12.33
2023-05-25T03:16:09.051Z,10.67
2023-05-25T03:18:36.382Z,12.93
2023-05-25T03:21:03.121Z,8.27
2023-05-25T03:23:29.826Z,9.77
2023-05-25T03:25:56.634Z,10.13
2023-05-25T03:28:23.453Z,13.83
2023-05-25T03:30:50.366Z,13.47
2023-05-25T03:33:17.044Z,11.83
2023-05-25T03:35:43.917Z,12.20
2023-05-25T03:38:10.730Z,12.83
2023-05-25T03:40:37.451Z,10.17
2023-05-25T03:43:04.147Z,14.43
2023-05-25T03:45:30.932Z,8.57
2023-05-25T03:47:57.749Z,14.17
2023-05-25T03:50:24.519Z,10.47
2023-05-25T03:52:51.306Z,13.37
2023-05-25T03:55:18.082Z,14.17
2023-05-25T03:57:44.982Z,13.77
2023-05-25T04:00:12.369Z,13.23
2023-05-25T04:02:39.213Z,17.80
2023-05-25T04:05:07.026Z,15.17
2023-05-25T04:07:33.752Z,12.43
2023-05-25T04:10:00.616Z,13.97
2023-05-25T04:12:27.600Z,15.73
2023-05-25T04:14:54.401Z,15.47
2023-05-25T04:17:24.942Z,14.67
2023-05-25T04:19:52.722Z,13.30
2023-05-25T04:22:19.526Z,16.83
2023-05-25T04:24:46.505Z,13.77
2023-05-25T04:27:14.422Z,13.13
2023-05-25T04:29:44.203Z,16.40
2023-05-25T04:32:10.974Z,11.77
2023-05-25T04:34:37.813Z,11.63
2023-05-25T04:37:05.660Z,15.73
2023-05-25T04:39:32.860Z,18.17
2023-05-25T04:42:01.646Z,17.33
2023-05-25T04:44:29.900Z,15.20
2023-05-25T04:46:57.175Z,14.07
2023-05-25T04:49:23.901Z,14.40
2023-05-25T04:51:51.520Z,15.33
2023-05-25T04:54:18.536Z,16.37
2023-05-25T04:56:45.479Z,14.20
2023-05-25T04:59:12.281Z,21.60
2023-05-25T05:01:41.755Z,11.43
2023-05-25T05:04:09.273Z,14.83
2023-05-25T05:06:36.704Z,12.70
2023-05-25T05:09:03.521Z,17.70
2023-05-25T05:11:30.408Z,13.87
2023-05-25T05:13:57.756Z,15.43
2023-05-25T05:16:24.803Z,15.60
2023-05-25T05:18:51.616Z,10.70
2023-05-25T05:21:18.392Z,13.00
2023-05-25T05:23:45.455Z,14.60
2023-05-25T05:26:15.186Z,13.00
2023-05-25T05:28:42.385Z,13.10
2023-05-25T05:31:09.289Z,17.60
2023-05-25T05:33:36.261Z,11.93
2023-05-25T05:36:03.877Z,14.70
2023-05-25T05:38:31.078Z,13.57
2023-05-25T05:40:57.952Z,15.03
2023-05-25T05:43:24.753Z,10.77
2023-05-25T05:45:51.490Z,10.93
2023-05-25T05:48:18.305Z,7.40
2023-05-25T05:50:45.262Z,10.85
2023-05-25T05:53:12.282Z,13.05
2023-05-25T05:55:39.129Z,9.13
2023-05-25T05:58:06.376Z,9.43
2023-05-25T06:00:34.202Z,8.75
2023-05-25T06:03:01.281Z,7.78
2023-05-25T06:05:28.256Z,12.00
2023-05-25T06:07:55.011Z,12.00
2023-05-25T06:10:21.901Z,8.73
2023-05-25T06:12:48.681Z,12.57
2023-05-25T06:15:15.839Z,10.40
2023-05-25T06:17:43.339Z,9.10
2023-05-25T06:20:10.806Z,9.82
2023-05-25T06:22:37.622Z,13.10
2023-05-25T06:25:04.790Z,11.15
2023-05-25T06:27:31.559Z,11.27
2023-05-25T06:29:58.636Z,9.20
2023-05-25T06:32:25.467Z,11.68
2023-05-25T06:34:52.280Z,9.45
2023-05-25T06:37:19.283Z,11.35
2023-05-25T06:39:46.154Z,10.93
2023-05-25T06:42:13.306Z,12.60
2023-05-25T06:44:40.151Z,13.20
2023-05-25T06:47:07.194Z,7.43
2023-05-25T06:49:34.021Z,12.07
2023-05-25T06:52:00.837Z,13.77
2023-05-25T06:54:27.702Z,13.05
2023-05-25T06:56:54.473Z,16.70
2023-05-25T06:59:21.333Z,15.53
2023-05-25T07:01:48.661Z,12.80
2023-05-25T07:04:15.560Z,14.15
2023-05-25T07:06:42.361Z,15.00
2023-05-25T07:09:09.122Z,12.48
2023-05-25T07:11:35.855Z,13.70
2023-05-25T07:14:02.554Z,13.13
2023-05-25T07:16:29.362Z,13.67
2023-05-25T07:18:57.147Z,14.80
2023-05-25T07:21:25.662Z,14.03
2023-05-25T07:23:52.475Z,14.40
2023-05-25T07:26:22.901Z,12.73
2023-05-25T07:28:49.656Z,16.60
2023-05-25T07:31:16.529Z,13.37
2023-05-25T07:33:43.655Z,16.57
2023-05-25T07:36:10.978Z,17.33
2023-05-25T07:38:37.824Z,13.03
2023-05-25T07:41:04.566Z,17.75
2023-05-25T07:43:31.620Z,14.88
2023-05-25T07:45:58.327Z,11.90
2023-05-25T07:48:25.088Z,16.27
2023-05-25T07:50:52.357Z,16.50
2023-05-25T07:53:19.099Z,16.38
2023-05-25T07:55:46.125Z,11.75
2023-05-25T07:58:13.152Z,13.98
2023-05-25T08:00:40.722Z,10.75
2023-05-25T08:03:07.892Z,12.70
2023-05-25T08:05:34.833Z,12.75
2023-05-25T08:08:01.693Z,13.00
2023-05-25T08:10:32.226Z,12.00
2023-05-25T08:12:59.426Z,9.05
2023-05-25T08:15:26.676Z,9.55
2023-05-25T08:17:53.585Z,9.55
2023-05-25T08:20:20.560Z,11.23
2023-05-25T08:22:47.625Z,9.80
2023-05-25T08:25:14.519Z,7.22
2023-05-25T08:27:41.313Z,9.57
2023-05-25T08:30:08.493Z,10.43
2023-05-25T08:32:35.381Z,11.07
2023-05-25T08:35:03.374Z,7.63
2023-05-25T08:37:31.652Z,8.15
2023-05-25T08:40:00.933Z,8.20
2023-05-25T08:42:28.199Z,8.73
2023-05-25T08:44:55.163Z,6.95
2023-05-25T08:47:23.093Z,7.05
2023-05-25T08:49:50.941Z,8.25
2023-05-25T08:52:22.457Z,6.63
2023-05-25T08:54:53.677Z,6.68
2023-05-25T08:57:36.674Z,7.75
2023-05-25T09:00:11.394Z,5.53
2023-05-25T09:02:59.956Z,5.90
2023-05-25T09:05:27.292Z,10.85
2023-05-25T09:07:56.842Z,6.72
2023-05-25T09:10:26.376Z,5.68
2023-05-25T09:12:55.031Z,5.57
2023-05-25T09:15:21.995Z,7.78
2023-05-25T09:17:48.835Z,4.07
2023-05-25T09:20:18.762Z,6.68
2023-05-25T09:22:48.695Z,6.28
2023-05-25T09:25:20.510Z,6.38
2023-05-25T09:27:47.433Z,5.38
2023-05-25T09:30:14.279Z,7.38
2023-05-25T09:32:41.904Z,5.05
2023-05-25T09:35:09.778Z,7.78
2023-05-25T09:37:37.701Z,7.00
2023-05-25T09:40:06.100Z,7.53
2023-05-25T09:42:34.025Z,5.35
2023-05-25T09:45:01.643Z,5.95
2023-05-25T09:47:28.975Z,6.82
2023-05-25T09:50:00.216Z,7.40
2023-05-25T09:52:27.673Z,6.57
2023-05-25T09:54:56.191Z,4.75
2023-05-25T09:57:22.967Z,5.93
2023-05-25T09:59:49.690Z,4.30
2023-05-25T10:02:16.548Z,6.82
2023-05-25T10:04:43.401Z,6.88
2023-05-25T10:07:10.225Z,7.20
2023-05-25T10:09:41.366Z,6.68
2023-05-25T10:12:08.994Z,6.18
2023-05-25T10:14:37.861Z,5.57
2023-05-25T10:17:08.935Z,9.02
2023-05-25T10:19:49.306Z,6.30
2023-05-25T10:22:24.225Z,7.07
2023-05-25T10:25:10.572Z,5.15
2023-05-25T10:27:41.182Z,5.22
2023-05-25T10:30:09.758Z,6.35
2023-05-25T10:32:37.715Z,4.05
2023-05-25T10:35:07.158Z,5.47
2023-05-25T10:37:35.165Z,6.47
2023-05-25T10:40:03.293Z,4.68
2023-05-25T10:42:30.822Z,6.85
2023-05-25T10:44:58.346Z,7.53
2023-05-25T10:47:25.675Z,8.25
2023-05-25T10:49:59.218Z,9.32
2023-05-25T10:52:30.808Z,10.35
2023-05-25T10:55:02.251Z,5.10
2023-05-25T10:57:29.518Z,3.60
2023-05-25T11:00:06.718Z,7.15
2023-05-25T11:02:56.444Z,5.25
2023-05-25T11:05:26.679Z,4.47
2023-05-25T11:07:58.269Z,6.32
2023-05-25T11:10:49.703Z,5.70
2023-05-25T11:13:31.183Z,5.97
2023-05-25T11:16:19.110Z,5.88
2023-05-25T11:18:57.514Z,6.32
2023-05-25T11:21:27.380Z,8.38
2023-05-25T11:24:04.415Z,7.68
2023-05-25T11:26:33.427Z,6.63
2023-05-25T11:29:02.015Z,7.80
2023-05-25T11:31:38.807Z,8.32
2023-05-25T11:34:09.413Z,9.90
2023-05-25T11:36:36.582Z,8.25
2023-05-25T11:39:13.918Z,19.52
2023-05-25T11:42:02.011Z,12.82
2023-05-25T11:44:39.025Z,11.40
2023-05-25T11:47:14.784Z,6.18
2023-05-25T11:49:42.440Z,39.00
2023-05-25T11:52:10.349Z,37.45
2023-05-25T11:54:37.824Z,27.10
2023-05-25T11:57:04.849Z,9.90
2023-05-25T11:59:32.861Z,8.75
2023-05-25T12:02:01.661Z,8.07
2023-05-25T12:04:30.021Z,5.72
2023-05-25T12:07:07.949Z,10.93
2023-05-25T12:09:36.668Z,6.97
2023-05-25T12:12:04.342Z,7.80
2023-05-25T12:14:32.932Z,9.20
2023-05-25T12:16:59.811Z,6.90
2023-05-25T12:19:27.046Z,5.22
2023-05-25T12:21:54.017Z,8.40
2023-05-25T12:24:20.910Z,8.32
2023-05-25T12:26:57.374Z,8.25
2023-05-25T12:29:25.389Z,7.53
2023-05-25T12:31:52.594Z,7.85
2023-05-25T12:34:20.406Z,6.68
2023-05-25T12:36:57.188Z,18.80
2023-05-25T12:39:29.749Z,22.15
2023-05-25T12:41:58.350Z,10.15
2023-05-25T12:44:34.917Z,10.48
2023-05-25T12:47:15.528Z,8.00
2023-05-25T12:49:48.170Z,8.85
2023-05-25T12:52:38.717Z,8.35
2023-05-25T12:55:27.163Z,11.38
2023-05-25T12:57:58.633Z,7.50
2023-05-25T13:00:27.447Z,12.43
2023-05-25T13:02:54.868Z,9.55
2023-05-25T13:05:26.951Z,12.52
2023-05-25T13:07:55.427Z,12.73
2023-05-25T13:10:23.154Z,9.65
2023-05-25T13:12:54.157Z,10.50
2023-05-25T13:15:22.092Z,9.27
2023-05-25T13:17:50.988Z,9.07
2023-05-25T13:20:23.890Z,9.30
2023-05-25T13:22:52.011Z,9.15
2023-05-25T13:25:19.549Z,12.85
2023-05-25T13:27:51.012Z,10.68
2023-05-25T13:30:18.226Z,8.68
2023-05-25T13:32:45.164Z,7.15
2023-05-25T13:35:18.525Z,8.85
2023-05-25T13:37:46.712Z,9.48
2023-05-25T13:40:14.083Z,14.50
2023-05-25T13:42:41.145Z,16.10
2023-05-25T13:45:08.596Z,10.63
2023-05-25T13:47:35.519Z,10.85
2023-05-25T13:50:02.520Z,11.82
2023-05-25T13:52:29.770Z,10.32
2023-05-25T13:54:56.539Z,12.90
2023-05-25T13:57:23.329Z,10.75
2023-05-25T13:59:50.069Z,9.07
2023-05-25T14:02:17.067Z,8.65
2023-05-25T14:04:43.964Z,12.20
2023-05-25T14:07:11.076Z,8.35
2023-05-25T14:09:37.971Z,11.95
2023-05-25T14:12:05.145Z,12.43
2023-05-25T14:14:33.032Z,15.98
2023-05-25T14:17:01.177Z,10.77
2023-05-25T14:19:28.335Z,10.90
2023-05-25T14:24:24.683Z,9.77
2023-05-25T14:26:51.468Z,14.35
2023-05-25T14:29:18.244Z,11.27
2023-05-25T14:31:46.542Z,8.48
2023-05-25T14:34:13.584Z,11.05
2023-05-25T14:36:40.323Z,9.88
2023-05-25T14:39:07.710Z,10.65
2023-05-25T14:41:35.207Z,10.32
2023-05-25T14:44:02.088Z,12.80
2023-05-25T14:46:28.873Z,14.95
2023-05-25T14:48:55.773Z,13.15
2023-05-25T14:51:22.566Z,13.48
2023-05-25T14:53:50.740Z,11.27
2023-05-25T14:56:24.906Z,12.13
2023-05-25T14:58:51.716Z,18.23
2023-05-25T15:01:18.474Z,12.43
2023-05-25T15:03:46.537Z,11.57
2023-05-25T15:06:13.596Z,10.25
2023-05-25T15:08:40.451Z,9.60
2023-05-25T15:11:12.751Z,12.57
2023-05-25T15:13:40.849Z,15.80
2023-05-25T15:16:11.844Z,11.23
2023-05-25T15:18:38.807Z,12.50
2023-05-25T15:21:06.274Z,15.10
2023-05-25T15:23:33.109Z,11.55
2023-05-25T15:26:04.067Z,10.18
2023-05-25T15:28:31.531Z,15.23
2023-05-25T15:31:02.907Z,13.55
2023-05-25T15:33:47.063Z,23.65
2023-05-25T15:36:15.630Z,11.07
2023-05-25T15:38:43.638Z,15.93
2023-05-25T15:41:11.513Z,13.15
2023-05-25T15:43:38.275Z,9.07
2023-05-25T15:46:05.101Z,11.82
2023-05-25T15:48:31.854Z,13.82
2023-05-25T15:50:58.652Z,11.98
2023-05-25T15:53:25.411Z,10.73
2023-05-25T15:55:52.112Z,10.80
2023-05-25T15:58:19.311Z,15.93
2023-05-25T16:00:46.122Z,18.63
2023-05-25T16:03:13.026Z,12.80
2023-05-25T16:05:39.865Z,14.02
2023-05-25T16:08:06.644Z,11.85
2023-05-25T16:10:33.434Z,11.48
2023-05-25T16:13:00.398Z,14.48
2023-05-25T16:15:27.277Z,9.45
2023-05-25T16:17:53.996Z,14.50
2023-05-25T16:20:20.774Z,16.83
2023-05-25T16:22:47.513Z,11.93
2023-05-25T16:25:14.216Z,14.82
2023-05-25T16:27:40.965Z,11.85
2023-05-25T16:30:08.601Z,15.80
2023-05-25T16:32:35.644Z,12.10
2023-05-25T16:35:02.466Z,16.13
2023-05-25T16:37:29.463Z,10.73
2023-05-25T16:39:58.453Z,16.63
2023-05-25T16:42:26.316Z,10.75
2023-05-25T16:44:53.369Z,13.13
2023-05-25T16:47:20.335Z,14.40
2023-05-25T16:49:47.042Z,11.57
2023-05-25T16:52:13.785Z,15.83
2023-05-25T16:54:40.810Z,16.63
2023-05-25T16:57:11.188Z,14.82
2023-05-25T16:59:38.390Z,18.42
2023-05-25T17:02:06.433Z,12.57
2023-05-25T17:04:33.157Z,13.50
2023-05-25T17:06:59.894Z,13.75
2023-05-25T17:09:26.634Z,10.07
2023-05-25T17:11:54.058Z,10.93
2023-05-25T17:14:21.074Z,14.27
2023-05-25T17:16:47.885Z,10.93
2023-05-25T17:19:15.127Z,12.68
2023-05-25T17:21:42.496Z,18.52
2023-05-25T17:24:10.274Z,18.05
2023-05-25T17:26:36.991Z,14.40
2023-05-25T17:29:04.925Z,15.10
2023-05-25T17:31:32.088Z,12.50
2023-05-25T17:33:58.862Z,12.07
2023-05-25T17:36:25.942Z,14.68
2023-05-25T17:38:52.646Z,11.23
2023-05-25T17:41:19.395Z,15.05
2023-05-25T17:43:46.656Z,10.65
2023-05-25T17:46:13.431Z,12.52
2023-05-25T17:48:40.271Z,10.82
2023-05-25T17:51:07.089Z,14.07
2023-05-25T17:53:33.801Z,13.85
2023-05-25T17:56:00.670Z,11.45
2023-05-25T17:58:27.884Z,8.82
2023-05-25T18:00:54.869Z,13.40
2023-05-25T18:03:21.739Z,14.35
2023-05-25T18:05:48.492Z,11.50
2023-05-25T18:08:15.371Z,12.55
2023-05-25T18:10:42.234Z,11.35
2023-05-25T18:13:08.976Z,13.82
2023-05-25T18:15:35.797Z,13.40
2023-05-25T18:18:05.668Z,11.77
2023-05-25T18:20:32.564Z,24.02
2023-05-25T18:22:59.540Z,20.33
2023-05-25T18:25:26.385Z,30.38
2023-05-25T18:27:53.175Z,15.55
2023-05-25T18:30:19.910Z,12.68
2023-05-25T18:32:46.691Z,16.25
2023-05-25T18:35:13.465Z,15.40
2023-05-25T18:37:41.151Z,18.70
2023-05-25T18:40:08.995Z,21.10
2023-05-25T18:42:35.772Z,14.90
2023-05-25T18:45:02.643Z,15.23
2023-05-25T18:47:29.436Z,17.87
2023-05-25T18:49:56.807Z,18.52
2023-05-25T18:52:24.664Z,13.77
2023-05-25T18:54:51.592Z,13.70
2023-05-25T18:57:18.406Z,14.60
2023-05-25T18:59:46.128Z,18.13
2023-05-25T19:02:12.990Z,14.27
2023-05-25T19:04:39.843Z,12.87
2023-05-25T19:07:06.552Z,14.13
2023-05-25T19:09:33.629Z,19.70
2023-05-25T19:12:01.307Z,14.37
2023-05-25T19:14:28.064Z,16.87
2023-05-25T19:16:54.815Z,15.87
2023-05-25T19:19:21.696Z,18.47
2023-05-25T19:21:48.383Z,22.60
2023-05-25T19:24:15.324Z,13.77
2023-05-25T19:26:44.459Z,16.50
2023-05-25T19:29:11.300Z,18.63
2023-05-25T19:31:38.194Z,16.80
2023-05-25T19:34:04.989Z,12.07
2023-05-25T19:36:32.734Z,16.60
2023-05-25T19:38:59.428Z,13.03
2023-05-25T19:41:26.170Z,11.57
2023-05-25T19:43:52.866Z,25.13
2023-05-25T19:46:19.785Z,17.00
2023-05-25T19:48:48.092Z,11.10
2023-05-25T19:51:14.812Z,17.13
2023-05-25T19:53:41.820Z,17.13
2023-05-25T19:56:09.256Z,17.57
2023-05-25T19:58:36.041Z,17.37
2023-05-25T20:01:02.831Z,15.67
2023-05-25T20:03:29.778Z,16.00
2023-05-25T20:05:57.821Z,17.67
2023-05-25T20:08:25.573Z,14.50
2023-05-25T20:10:52.817Z,13.40
2023-05-25T20:13:20.279Z,17.50
2023-05-25T20:15:47.720Z,20.80
2023-05-25T20:18:14.855Z,15.50
2023-05-25T20:20:41.724Z,15.70
2023-05-25T20:23:08.560Z,15.80
2023-05-25T20:25:35.526Z,15.43
2023-05-25T20:28:02.291Z,20.80
2023-05-25T20:30:29.158Z,15.60
2023-05-25T20:32:55.953Z,12.30
2023-05-25T20:35:22.827Z,15.57
2023-05-25T20:37:49.586Z,14.10
2023-05-25T20:40:16.391Z,12.13
2023-05-25T20:42:43.138Z,20.60
2023-05-25T20:45:10.032Z,17.93
2023-05-25T20:47:39.258Z,16.43
2023-05-25T20:50:06.581Z,12.60
2023-05-25T20:52:33.775Z,21.63
2023-05-25T20:55:00.658Z,17.80
2023-05-25T20:57:27.535Z,12.93
2023-05-25T20:59:57.196Z,15.80
2023-05-25T21:02:24.103Z,15.03
2023-05-25T21:04:51.112Z,11.43
2023-05-25T21:07:19.842Z,12.67
2023-05-25T21:09:46.653Z,14.60
2023-05-25T21:12:13.428Z,18.20
2023-05-25T21:14:40.268Z,17.33
2023-05-25T21:17:07.051Z,19.07
2023-05-25T21:19:33.857Z,12.67
2023-05-25T21:22:01.768Z,13.00
2023-05-25T21:24:28.526Z,20.47
2023-05-25T21:26:55.498Z,16.80
2023-05-25T21:29:22.280Z,14.27
2023-05-25T21:31:49.242Z,14.80
2023-05-25T21:34:16.103Z,17.00
2023-05-25T21:36:42.847Z,18.90
2023-05-25T21:39:09.704Z,17.93
2023-05-25T21:41:36.445Z,16.53
2023-05-25T21:44:03.180Z,14.80
2023-05-25T21:46:29.946Z,17.40
2023-05-25T21:48:56.656Z,17.57
2023-05-25T21:51:23.360Z,17.90
2023-05-25T21:53:50.117Z,10.43
2023-05-25T21:56:17.055Z,16.00
2023-05-25T21:58:43.834Z,17.17
2023-05-25T22:01:10.958Z,19.70
2023-05-25T22:03:37.892Z,18.83
2023-05-25T22:06:04.816Z,17.97
2023-05-25T22:08:33.689Z,23.47
2023-05-25T22:11:00.515Z,22.23
2023-05-25T22:13:27.214Z,19.13
2023-05-25T22:15:53.963Z,18.90
2023-05-25T22:18:20.765Z,21.10
2023-05-25T22:20:47.670Z,22.20
2023-05-25T22:23:14.589Z,20.53
2023-05-25T22:25:41.522Z,25.87
2023-05-25T22:28:08.295Z,13.93
2023-05-25T22:30:35.146Z,27.47
2023-05-25T22:33:02.241Z,26.27
2023-05-25T22:35:29.015Z,18.67
2023-05-25T22:37:55.846Z,17.90
2023-05-25T22:40:22.603Z,19.07
2023-05-25T22:42:50.575Z,21.93
2023-05-25T22:45:18.413Z,20.23
2023-05-25T22:47:45.409Z,23.97
2023-05-25T22:50:13.287Z,14.23
2023-05-25T22:52:43.386Z,17.20
2023-05-25T22:55:10.903Z,20.73
2023-05-25T22:57:37.683Z,23.97
2023-05-25T23:00:05.242Z,30.53
2023-05-25T23:02:32.071Z,15.33
2023-05-25T23:04:58.919Z,19.03
2023-05-25T23:07:26.163Z,21.10
2023-05-25T23:09:52.959Z,18.73
2023-05-25T23:12:19.751Z,17.73
2023-05-25T23:14:47.600Z,16.67
2023-05-25T23:17:14.428Z,14.37
2023-05-25T23:19:41.288Z,21.57
2023-05-25T23:22:08.104Z,23.70
2023-05-25T23:24:34.972Z,23.43
2023-05-25T23:27:02.680Z,19.93
2023-05-25T23:29:29.536Z,18.50
2023-05-25T23:31:56.243Z,18.13
2023-05-25T23:34:23.128Z,16.47
2023-05-25T23:36:49.819Z,20.77
2023-05-25T23:39:16.520Z,19.37
2023-05-25T23:41:43.301Z,18.37
2023-05-25T23:44:10.212Z,19.57
2023-05-25T23:46:36.949Z,25.13
2023-05-25T23:49:03.779Z,18.57
2023-05-25T23:51:31.914Z,21.57
2023-05-25T23:53:58.706Z,21.57
2023-05-25T23:56:27.825Z,20.27
2023-05-25T23:58:54.889Z,19.30
